Time,TemperatureF,DewpointF,PressureIn,WindDirection,WindDirectionDegrees,WindSpeedMPH,WindSpeedGustMPH,Humidity,HourlyPrecipIn,Conditions,Clouds,dailyrainin,SoftwareType,DateUTC
2013-06-11 00:01:00,67.8,65.8,31.95,SSE,167,0.0,0.0,93,0.00,NA,NA,-99.99,wxupload 3.4,2013-06-11 04:01:00,
2013-06-11 00:03:00,67.8,65.8,31.95,SSE,167,0.0,0.0,93,0.00,NA,NA,-99.99,wxupload 3.4,2013-06-11 04:03:00,
2013-06-11 00:05:00,67.6,65.6,31.95,SSE,167,0.0,0.0,93,0.00,NA,NA,-99.99,wxupload 3.4,2013-06-11 04:05:00,
2013-06-11 00:13:00,67.6,65.9,31.95,SSE,167,0.0,0.0,94,0.00,NA,NA,-99.99,wxupload 3.4,2013-06-11 04:13:00,
2013-06-11 00:19:00,67.5,65.7,31.95,SSE,167,0.0,0.0,94,0.00,NA,NA,-99.99,wxupload 3.4,2013-06-11 04:19:00,
2013-06-11 00:25:00,67.5,65.7,31.95,SSE,167,0.0,0.0,94,0.00,NA,NA,-99.99,wxupload 3.4,2013-06-11 04:25:00,
2013-06-11 00:31:00,67.3,65.2,31.95,SSE,167,0.0,0.0,93,0.00,NA,NA,-99.99,wxupload 3.4,2013-06-11 04:31:00,
2013-06-11 00:35:00,67.1,65.0,31.95,SSE,167,0.0,0.0,93,0.00,NA,NA,-99.99,wxupload 3.4,2013-06-11 04:35:00,
2013-06-11 00:41:00,67.1,65.0,31.95,SSE,167,0.0,0.0,93,0.00,NA,NA,-99.99,wxupload 3.4,2013-06-11 04:41:00,
2013-06-11 00:47:00,67.1,65.3,31.95,SSE,167,0.0,0.0,94,0.00,NA,NA,-99.99,wxupload 3.4,2013-06-11 04:47:00,
2013-06-11 00:53:00,66.9,65.2,31.95,SSE,167,0.0,0.0,94,0.00,NA,NA,-99.99,wxupload 3.4,2013-06-11 04:53:00,
2013-06-11 00:59:00,66.9,65.2,31.95,SSE,167,0.0,0.0,94,0.00,NA,NA,-99.99,wxupload 3.4,2013-06-11 04:59:00,
2013-06-11 01:05:00,66.9,65.2,31.95,SSE,167,0.0,0.0,94,0.00,NA,NA,-99.99,wxupload 3.4,2013-06-11 05:05:00,
2013-06-11 01:11:00,66.7,65.0,31.95,SSE,167,0.0,0.0,94,0.00,NA,NA,-99.99,wxupload 3.4,2013-06-11 05:11:00,
2013-06-11 01:17:00,66.7,65.0,31.95,SSE,167,0.0,0.0,94,0.00,NA,NA,-99.99,wxupload 3.4,2013-06-11 05:17:00,
2013-06-11 01:23:00,66.6,64.8,31.95,SSE,167,0.0,0.0,94,0.00,NA,NA,-99.99,wxupload 3.4,2013-06-11 05:23:00,
2013-06-11 01:29:00,66.6,64.8,31.95,SSE,167,0.0,0.0,94,0.00,NA,NA,-99.99,wxupload 3.4,2013-06-11 05:29:00,
2013-06-11 01:35:00,66.6,64.8,31.95,SSE,167,0.0,0.0,94,0.00,NA,NA,-99.99,wxupload 3.4,2013-06-11 05:35:00,
2013-06-11 01:41:00,66.4,64.6,31.95,SSE,167,0.0,0.0,94,0.00,NA,NA,-99.99,wxupload 3.4,2013-06-11 05:41:00,
2013-06-11 01:47:00,66.4,64.6,31.95,SSE,167,0.0,0.0,94,0.00,NA,NA,-99.99,wxupload 3.4,2013-06-11 05:47:00,
2013-06-11 01:53:00,66.6,64.8,31.95,SSE,167,0.0,0.0,94,0.00,NA,NA,-99.99,wxupload 3.4,2013-06-11 05:53:00,
2013-06-11 01:59:00,66.4,64.6,31.95,SSE,167,0.0,0.0,94,0.00,NA,NA,-99.99,wxupload 3.4,2013-06-11 05:59:00,
2013-06-11 02:05:00,66.4,64.6,31.95,SSE,167,0.0,0.0,94,0.00,NA,NA,-99.99,wxupload 3.4,2013-06-11 06:05:00,
2013-06-11 02:13:00,66.2,64.5,31.95,SSE,167,0.0,0.0,94,0.00,NA,NA,-99.99,wxupload 3.4,2013-06-11 06:13:00,
2013-06-11 02:19:00,66.2,64.5,31.92,SSE,167,0.0,0.0,94,0.00,NA,NA,-99.99,wxupload 3.4,2013-06-11 06:19:00,
2013-06-11 02:25:00,66.0,64.3,31.92,SSE,167,0.0,0.0,94,0.00,NA,NA,-99.99,wxupload 3.4,2013-06-11 06:25:00,
2013-06-11 02:31:00,66.0,64.3,31.92,SSE,167,0.0,0.0,94,0.00,NA,NA,-99.99,wxupload 3.4,2013-06-11 06:31:00,
2013-06-11 02:37:00,66.0,64.3,31.92,SSE,167,0.0,0.0,94,0.00,NA,NA,-99.99,wxupload 3.4,2013-06-11 06:37:00,
2013-06-11 02:43:00,66.0,64.3,31.92,SSE,167,0.0,0.0,94,0.00,NA,NA,-99.99,wxupload 3.4,2013-06-11 06:43:00,
2013-06-11 02:49:00,66.0,64.3,31.92,SSE,167,0.0,0.0,94,0.00,NA,NA,-99.99,wxupload 3.4,2013-06-11 06:49:00,
2013-06-11 02:55:00,66.0,64.6,31.92,SSE,167,0.0,0.0,95,0.00,NA,NA,-99.99,wxupload 3.4,2013-06-11 06:55:00,
2013-06-11 03:01:00,66.0,64.6,31.92,SSE,167,0.0,0.0,95,0.00,NA,NA,-99.99,wxupload 3.4,2013-06-11 07:01:00,
2013-06-11 03:07:00,66.0,64.6,31.92,SSE,167,0.0,0.0,95,0.00,NA,NA,-99.99,wxupload 3.4,2013-06-11 07:07:00,
2013-06-11 03:13:00,66.2,64.7,31.92,SSE,167,0.0,0.0,95,0.00,NA,NA,-99.99,wxupload 3.4,2013-06-11 07:13:00,
2013-06-11 03:19:00,66.4,64.9,31.92,SSE,167,0.0,0.0,95,0.00,NA,NA,-99.99,wxupload 3.4,2013-06-11 07:19:00,
2013-06-11 03:25:00,66.4,64.9,31.92,SSE,167,0.0,0.0,95,0.00,NA,NA,-99.99,wxupload 3.4,2013-06-11 07:25:00,
2013-06-11 03:31:00,66.4,64.9,31.92,SSE,167,0.0,0.0,95,0.00,NA,NA,-99.99,wxupload 3.4,2013-06-11 07:31:00,
2013-06-11 03:37:00,66.4,64.9,31.92,SSE,167,0.0,0.0,95,0.00,NA,NA,-99.99,wxupload 3.4,2013-06-11 07:37:00,
2013-06-11 03:43:00,66.4,64.9,31.92,SSE,167,0.0,0.0,95,0.00,NA,NA,-99.99,wxupload 3.4,2013-06-11 07:43:00,
2013-06-11 03:49:00,66.4,64.9,31.92,SSE,167,0.0,0.0,95,0.00,NA,NA,-99.99,wxupload 3.4,2013-06-11 07:49:00,
2013-06-11 03:55:00,66.4,64.9,31.92,SSE,167,0.0,0.0,95,0.00,NA,NA,-99.99,wxupload 3.4,2013-06-11 07:55:00,
2013-06-11 04:01:00,66.4,64.9,31.92,SSE,167,0.0,0.0,95,0.00,NA,NA,-99.99,wxupload 3.4,2013-06-11 08:01:00,
2013-06-11 04:07:00,66.4,64.9,31.92,SSE,166,0.0,0.0,95,0.00,NA,NA,-99.99,wxupload 3.4,2013-06-11 08:07:00,
2013-06-11 04:13:00,66.2,64.7,31.92,SSE,166,0.0,0.0,95,0.00,NA,NA,-99.99,wxupload 3.4,2013-06-11 08:13:00,
2013-06-11 04:19:00,66.2,64.7,31.92,SSE,166,0.0,0.0,95,0.00,NA,NA,-99.99,wxupload 3.4,2013-06-11 08:19:00,
2013-06-11 04:25:00,66.2,64.7,31.92,SSE,166,0.0,0.0,95,0.00,NA,NA,-99.99,wxupload 3.4,2013-06-11 08:25:00,
2013-06-11 04:31:00,66.0,64.6,31.92,SSE,166,0.0,0.0,95,0.00,NA,NA,-99.99,wxupload 3.4,2013-06-11 08:31:00,
2013-06-11 04:37:00,66.0,64.6,31.92,SSE,166,0.0,0.0,95,0.00,NA,NA,-99.99,wxupload 3.4,2013-06-11 08:37:00,
2013-06-11 04:43:00,66.0,64.6,31.92,SSE,166,0.0,0.0,95,0.00,NA,NA,-99.99,wxupload 3.4,2013-06-11 08:43:00,
2013-06-11 04:49:00,66.0,64.6,31.92,SSE,166,0.0,0.0,95,0.00,NA,NA,-99.99,wxupload 3.4,2013-06-11 08:49:00,
2013-06-11 04:55:00,66.0,64.6,31.92,SSE,166,0.0,0.0,95,0.00,NA,NA,-99.99,wxupload 3.4,2013-06-11 08:55:00,
2013-06-11 05:01:00,66.0,64.6,31.92,SSE,166,0.0,0.0,95,0.00,NA,NA,-99.99,wxupload 3.4,2013-06-11 09:01:00,
2013-06-11 05:07:00,66.0,64.6,31.92,SSE,166,0.0,0.0,95,0.00,NA,NA,-99.99,wxupload 3.4,2013-06-11 09:07:00,
2013-06-11 05:13:00,65.8,64.4,31.92,SSE,166,0.0,0.0,95,0.00,NA,NA,-99.99,wxupload 3.4,2013-06-11 09:13:00,
2013-06-11 05:19:00,65.8,64.4,31.95,SSE,166,0.0,0.0,95,0.00,NA,NA,-99.99,wxupload 3.4,2013-06-11 09:19:00,
2013-06-11 05:25:00,65.8,64.4,31.95,SSE,166,0.0,0.0,95,0.00,NA,NA,-99.99,wxupload 3.4,2013-06-11 09:25:00,
2013-06-11 05:31:00,65.8,64.7,31.95,SSE,166,0.0,0.0,96,0.00,NA,NA,-99.99,wxupload 3.4,2013-06-11 09:31:00,
2013-06-11 05:37:00,65.8,64.7,31.95,SSE,166,0.0,0.0,96,0.00,NA,NA,-99.99,wxupload 3.4,2013-06-11 09:37:00,
2013-06-11 05:43:00,65.8,64.7,31.95,SSE,166,0.0,0.0,96,0.00,NA,NA,-99.99,wxupload 3.4,2013-06-11 09:43:00,
2013-06-11 05:49:00,65.7,64.5,31.95,SSE,166,0.0,0.0,96,0.00,NA,NA,-99.99,wxupload 3.4,2013-06-11 09:49:00,
2013-06-11 05:55:00,65.7,64.5,31.95,SSE,166,0.0,0.0,96,0.00,NA,NA,-99.99,wxupload 3.4,2013-06-11 09:55:00,
2013-06-11 06:01:00,65.7,64.5,31.95,SSE,166,0.0,0.0,96,0.00,NA,NA,-99.99,wxupload 3.4,2013-06-11 10:01:00,
2013-06-11 06:07:00,65.7,64.5,31.95,SSE,166,0.0,0.0,96,0.00,NA,NA,-99.99,wxupload 3.4,2013-06-11 10:07:00,
2013-06-11 06:13:00,65.7,64.5,31.95,SSE,166,0.0,0.0,96,0.00,NA,NA,-99.99,wxupload 3.4,2013-06-11 10:13:00,
2013-06-11 06:19:00,65.7,64.5,31.95,SSE,166,0.0,0.0,96,0.00,NA,NA,-99.99,wxupload 3.4,2013-06-11 10:19:00,
2013-06-11 06:25:00,65.8,64.7,31.95,SSE,166,0.0,0.0,96,0.00,NA,NA,-99.99,wxupload 3.4,2013-06-11 10:25:00,
2013-06-11 06:31:00,66.2,65.0,31.95,SSE,166,0.0,0.0,96,0.00,NA,NA,-99.99,wxupload 3.4,2013-06-11 10:31:00,
2013-06-11 06:37:00,66.6,65.4,31.95,SSE,166,0.0,0.0,96,0.00,NA,NA,-99.99,wxupload 3.4,2013-06-11 10:37:00,
2013-06-11 06:43:00,66.7,65.6,31.95,SSE,166,0.0,0.0,96,0.00,NA,NA,-99.99,wxupload 3.4,2013-06-11 10:43:00,
2013-06-11 06:49:00,66.7,65.6,31.95,SSE,166,0.0,0.0,96,0.00,NA,NA,-99.99,wxupload 3.4,2013-06-11 10:49:00,
2013-06-11 06:55:00,66.9,65.8,31.95,SSE,166,0.0,0.0,96,0.00,NA,NA,-99.99,wxupload 3.4,2013-06-11 10:55:00,
2013-06-11 07:01:00,67.1,65.9,31.95,SSE,166,0.0,0.0,96,0.00,NA,NA,-99.99,wxupload 3.4,2013-06-11 11:01:00,
2013-06-11 07:07:00,67.1,65.9,31.95,SSE,166,0.0,0.0,96,0.00,NA,NA,-99.99,wxupload 3.4,2013-06-11 11:07:00,
2013-06-11 07:13:00,67.1,65.9,31.95,SSE,166,0.0,0.0,96,0.00,NA,NA,-99.99,wxupload 3.4,2013-06-11 11:13:00,
2013-06-11 07:19:00,67.5,66.3,31.95,SSE,166,0.0,0.0,96,0.00,NA,NA,-99.99,wxupload 3.4,2013-06-11 11:19:00,
2013-06-11 07:25:00,67.6,66.8,31.95,SSE,166,0.0,2.0,97,0.00,NA,NA,-99.99,wxupload 3.4,2013-06-11 11:25:00,
2013-06-11 07:31:00,68.0,66.8,31.95,SSE,166,0.0,0.0,96,0.00,NA,NA,-99.99,wxupload 3.4,2013-06-11 11:31:00,
2013-06-11 07:37:00,68.5,67.7,31.95,SSE,166,0.0,0.0,97,0.00,NA,NA,-99.99,wxupload 3.4,2013-06-11 11:37:00,
2013-06-11 07:43:00,68.7,67.8,31.95,SSE,166,0.0,0.0,97,0.00,NA,NA,-99.99,wxupload 3.4,2013-06-11 11:43:00,
2013-06-11 07:49:00,68.7,67.8,31.95,SSE,166,0.0,0.0,97,0.00,NA,NA,-99.99,wxupload 3.4,2013-06-11 11:49:00,
2013-06-11 07:55:00,69.1,68.2,31.95,SSE,168,0.0,2.0,97,0.00,NA,NA,-99.99,wxupload 3.4,2013-06-11 11:55:00,
2013-06-11 08:01:00,69.4,68.6,31.95,SSE,168,0.0,0.0,97,0.00,NA,NA,-99.99,wxupload 3.4,2013-06-11 12:01:00,
2013-06-11 08:07:00,69.6,68.7,31.95,SSE,168,0.0,0.0,97,0.00,NA,NA,-99.99,wxupload 3.4,2013-06-11 12:07:00,
2013-06-11 08:13:00,70.2,69.3,31.95,SW,218,0.0,3.0,97,0.00,NA,NA,-99.99,wxupload 3.4,2013-06-11 12:13:00,
2013-06-11 08:19:00,70.5,69.6,31.95,WSW,238,0.0,0.0,97,0.00,NA,NA,-99.99,wxupload 3.4,2013-06-11 12:19:00,
2013-06-11 08:25:00,70.7,69.8,31.95,North,349,0.0,3.0,97,0.00,NA,NA,-99.99,wxupload 3.4,2013-06-11 12:25:00,
2013-06-11 08:31:00,70.7,69.8,31.95,NNE,26,0.0,0.0,97,0.00,NA,NA,-99.99,wxupload 3.4,2013-06-11 12:31:00,
2013-06-11 08:37:00,70.9,70.0,31.95,SSW,211,0.0,0.0,97,0.00,NA,NA,-99.99,wxupload 3.4,2013-06-11 12:37:00,
2013-06-11 08:43:00,70.7,69.8,31.95,South,179,0.0,0.0,97,0.00,NA,NA,-99.99,wxupload 3.4,2013-06-11 12:43:00,
2013-06-11 08:49:00,70.7,69.8,31.95,South,182,0.0,0.0,97,0.00,NA,NA,-99.99,wxupload 3.4,2013-06-11 12:49:00,
2013-06-11 08:55:00,71.1,70.2,31.95,SSE,149,0.0,0.0,97,0.00,NA,NA,-99.99,wxupload 3.4,2013-06-11 12:55:00,
2013-06-11 09:01:00,71.8,70.9,31.95,SSE,154,0.0,0.0,97,0.00,NA,NA,-99.99,wxupload 3.4,2013-06-11 13:01:00,
2013-06-11 09:07:00,72.7,72.1,31.95,NW,323,0.0,0.0,98,0.00,NA,NA,-99.99,wxupload 3.4,2013-06-11 13:07:00,
2013-06-11 09:13:00,72.9,72.3,31.95,NW,323,0.0,0.0,98,0.00,NA,NA,-99.99,wxupload 3.4,2013-06-11 13:13:00,
2013-06-11 09:19:00,73.0,72.5,31.95,North,7,0.0,0.0,98,0.00,NA,NA,-99.99,wxupload 3.4,2013-06-11 13:19:00,
2013-06-11 09:25:00,73.4,72.5,31.95,North,7,0.0,0.0,97,0.00,NA,NA,-99.99,wxupload 3.4,2013-06-11 13:25:00,
2013-06-11 09:31:00,73.6,72.7,31.95,North,7,0.0,0.0,97,0.00,NA,NA,-99.99,wxupload 3.4,2013-06-11 13:31:00,
2013-06-11 09:37:00,73.8,72.9,31.95,SSW,206,0.0,3.0,97,0.00,NA,NA,-99.99,wxupload 3.4,2013-06-11 13:37:00,
2013-06-11 09:43:00,73.4,72.5,31.95,North,5,0.0,3.0,97,0.00,NA,NA,-99.99,wxupload 3.4,2013-06-11 13:43:00,
2013-06-11 09:49:00,73.8,72.9,31.95,North,0,3.0,3.0,97,0.00,NA,NA,-99.99,wxupload 3.4,2013-06-11 13:49:00,
2013-06-11 09:55:00,74.5,73.6,31.95,WNW,297,0.0,0.0,97,0.00,NA,NA,-99.99,wxupload 3.4,2013-06-11 13:55:00,
2013-06-11 10:01:00,73.8,72.6,31.95,NW,324,0.0,3.0,96,0.00,NA,NA,-99.99,wxupload 3.4,2013-06-11 14:01:00,
2013-06-11 10:07:00,73.9,71.8,31.95,NW,322,2.0,4.0,93,0.00,NA,NA,-99.99,wxupload 3.4,2013-06-11 14:07:00,
2013-06-11 10:13:00,74.5,71.7,31.95,North,353,0.0,0.0,91,0.00,NA,NA,-99.99,wxupload 3.4,2013-06-11 14:13:00,
2013-06-11 10:19:00,72.9,68.2,31.95,NNW,338,3.0,4.0,85,0.00,NA,NA,-99.99,wxupload 3.4,2013-06-11 14:19:00,
2013-06-11 10:25:00,73.4,67.3,31.95,NNE,23,0.0,0.0,81,0.00,NA,NA,-99.99,wxupload 3.4,2013-06-11 14:25:00,
2013-06-11 10:31:00,73.9,68.9,31.95,NW,310,3.0,3.0,84,0.00,NA,NA,-99.99,wxupload 3.4,2013-06-11 14:31:00,
2013-06-11 10:37:00,73.2,63.4,31.95,SW,217,3.0,6.0,71,0.00,NA,NA,-99.99,wxupload 3.4,2013-06-11 14:37:00,
2013-06-11 10:43:00,73.4,62.4,31.95,North,0,0.0,0.0,68,0.00,NA,NA,-99.99,wxupload 3.4,2013-06-11 14:43:00,
2013-06-11 10:49:00,73.4,63.2,31.95,East,100,0.0,4.0,70,0.00,NA,NA,-99.99,wxupload 3.4,2013-06-11 14:49:00,
2013-06-11 10:55:00,72.9,60.6,31.95,ENE,62,0.0,4.0,65,0.00,NA,NA,-99.99,wxupload 3.4,2013-06-11 14:55:00,
2013-06-11 11:02:00,72.0,58.5,31.95,North,0,0.0,5.0,62,0.00,NA,NA,-99.99,wxupload 3.4,2013-06-11 15:02:00,
2013-06-11 11:08:00,72.5,56.7,31.95,NNE,21,2.0,3.0,57,0.00,NA,NA,-99.99,wxupload 3.4,2013-06-11 15:08:00,
2013-06-11 11:14:00,72.7,55.4,31.95,NW,319,0.0,3.0,54,0.00,NA,NA,-99.99,wxupload 3.4,2013-06-11 15:14:00,
2013-06-11 11:20:00,73.0,56.2,31.95,SSW,205,3.0,3.0,55,0.00,NA,NA,-99.99,wxupload 3.4,2013-06-11 15:20:00,
2013-06-11 11:26:00,73.9,53.9,31.95,South,171,0.0,0.0,49,0.00,NA,NA,-99.99,wxupload 3.4,2013-06-11 15:26:00,
2013-06-11 11:32:00,74.8,55.8,31.95,WNW,292,4.0,4.0,51,0.00,NA,NA,-99.99,wxupload 3.4,2013-06-11 15:32:00,
2013-06-11 11:38:00,75.2,55.6,31.95,WNW,299,4.0,5.0,50,0.00,NA,NA,-99.99,wxupload 3.4,2013-06-11 15:38:00,
2013-06-11 11:44:00,75.9,56.3,31.95,NNW,335,3.0,4.0,50,0.00,NA,NA,-99.99,wxupload 3.4,2013-06-11 15:44:00,
2013-06-11 11:50:00,75.4,51.7,31.95,ENE,57,3.0,3.0,43,0.00,NA,NA,-99.99,wxupload 3.4,2013-06-11 15:50:00,
2013-06-11 11:56:00,76.5,55.1,31.95,NNE,12,3.0,6.0,47,0.00,NA,NA,-99.99,wxupload 3.4,2013-06-11 15:56:00,
2013-06-11 12:02:00,76.8,52.4,31.95,WSW,248,0.0,4.0,42,0.00,NA,NA,-99.99,wxupload 3.4,2013-06-11 16:02:00,
2013-06-11 12:08:00,77.2,52.1,31.95,NE,40,0.0,4.0,41,0.00,NA,NA,-99.99,wxupload 3.4,2013-06-11 16:08:00,
2013-06-11 12:14:00,77.4,52.2,31.95,NW,307,0.0,3.0,41,0.00,NA,NA,-99.99,wxupload 3.4,2013-06-11 16:14:00,
2013-06-11 12:20:00,77.2,52.1,31.95,NNW,337,3.0,5.0,41,0.00,NA,NA,-99.99,wxupload 3.4,2013-06-11 16:20:00,
2013-06-11 12:26:00,77.4,52.2,31.95,ENE,60,4.0,4.0,41,0.00,NA,NA,-99.99,wxupload 3.4,2013-06-11 16:26:00,
2013-06-11 12:32:00,77.5,48.9,31.95,NE,54,3.0,4.0,36,0.00,NA,NA,-99.99,wxupload 3.4,2013-06-11 16:32:00,
2013-06-11 12:38:00,78.4,49.7,31.95,ESE,102,0.0,3.0,36,0.00,NA,NA,-99.99,wxupload 3.4,2013-06-11 16:38:00,
2013-06-11 12:44:00,79.7,48.5,31.95,NW,319,5.0,5.0,33,0.00,NA,NA,-99.99,wxupload 3.4,2013-06-11 16:44:00,
2013-06-11 12:50:00,79.5,50.7,31.95,ENE,68,0.0,0.0,36,0.00,NA,NA,-99.99,wxupload 3.4,2013-06-11 16:50:00,
2013-06-11 12:56:00,78.3,48.0,31.95,South,181,0.0,0.0,34,0.00,NA,NA,-99.99,wxupload 3.4,2013-06-11 16:56:00,
2013-06-11 13:02:00,77.0,50.6,31.95,West,279,0.0,3.0,39,0.00,NA,NA,-99.99,wxupload 3.4,2013-06-11 17:02:00,
2013-06-11 13:08:00,77.2,52.1,31.95,WSW,241,0.0,0.0,41,0.00,NA,NA,-99.99,wxupload 3.4,2013-06-11 17:08:00,
2013-06-11 13:14:00,77.7,52.5,31.95,East,83,0.0,0.0,41,0.00,NA,NA,-99.99,wxupload 3.4,2013-06-11 17:14:00,
2013-06-11 13:20:00,78.4,54.5,31.95,NNE,24,0.0,0.0,43,0.00,NA,NA,-99.99,wxupload 3.4,2013-06-11 17:20:00,
2013-06-11 13:26:00,79.2,50.4,31.95,North,353,0.0,0.0,36,0.00,NA,NA,-99.99,wxupload 3.4,2013-06-11 17:26:00,
2013-06-11 13:32:00,79.3,48.2,31.95,NE,35,0.0,2.0,33,0.00,NA,NA,-99.99,wxupload 3.4,2013-06-11 17:32:00,
2013-06-11 13:38:00,80.1,49.6,31.95,ENE,76,0.0,0.0,34,0.00,NA,NA,-99.99,wxupload 3.4,2013-06-11 17:38:00,
2013-06-11 13:44:00,80.6,50.9,31.95,North,353,0.0,0.0,35,0.00,NA,NA,-99.99,wxupload 3.4,2013-06-11 17:44:00,
2013-06-11 13:50:00,81.0,50.4,31.95,SSW,213,0.0,6.0,34,0.00,NA,NA,-99.99,wxupload 3.4,2013-06-11 17:50:00,
2013-06-11 13:56:00,80.8,47.8,31.95,West,272,0.0,0.0,31,0.00,NA,NA,-99.99,wxupload 3.4,2013-06-11 17:56:00,
2013-06-11 14:02:00,80.6,47.7,31.95,ENE,62,0.0,4.0,31,0.00,NA,NA,-99.99,wxupload 3.4,2013-06-11 18:02:00,
2013-06-11 14:08:00,81.1,49.8,31.95,SW,215,0.0,4.0,33,0.00,NA,NA,-99.99,wxupload 3.4,2013-06-11 18:08:00,
2013-06-11 14:14:00,81.7,50.3,31.95,North,1,4.0,4.0,33,0.00,NA,NA,-99.99,wxupload 3.4,2013-06-11 18:14:00,
2013-06-11 14:20:00,81.9,50.4,31.95,ENE,74,0.0,0.0,33,0.00,NA,NA,-99.99,wxupload 3.4,2013-06-11 18:20:00,
2013-06-11 14:26:00,82.0,49.8,31.95,WSW,245,0.0,4.0,32,0.00,NA,NA,-99.99,wxupload 3.4,2013-06-11 18:26:00,
2013-06-11 14:32:00,81.9,48.8,31.98,NW,316,0.0,4.0,31,0.00,NA,NA,-99.99,wxupload 3.4,2013-06-11 18:32:00,
2013-06-11 14:38:00,81.7,47.8,31.98,NE,42,0.0,4.0,30,0.00,NA,NA,-99.99,wxupload 3.4,2013-06-11 18:38:00,
2013-06-11 14:44:00,81.7,47.8,31.98,NNE,12,3.0,3.0,30,0.00,NA,NA,-99.99,wxupload 3.4,2013-06-11 18:44:00,
2013-06-11 14:50:00,81.7,47.8,31.98,North,357,0.0,4.0,30,0.00,NA,NA,-99.99,wxupload 3.4,2013-06-11 18:50:00,
2013-06-11 14:56:00,81.9,47.9,31.98,ENE,60,2.0,4.0,30,0.00,NA,NA,-99.99,wxupload 3.4,2013-06-11 18:56:00,
2013-06-11 15:02:00,82.0,48.9,31.98,ENE,63,0.0,0.0,31,0.00,NA,NA,-99.99,wxupload 3.4,2013-06-11 19:02:00,
2013-06-11 15:08:00,81.7,49.5,31.98,West,274,0.0,4.0,32,0.00,NA,NA,-99.99,wxupload 3.4,2013-06-11 19:08:00,
2013-06-11 15:14:00,82.0,49.8,31.98,SW,236,0.0,4.0,32,0.00,NA,NA,-99.99,wxupload 3.4,2013-06-11 19:14:00,
2013-06-11 15:20:00,82.8,48.7,31.98,NW,313,0.0,0.0,30,0.00,NA,NA,-99.99,wxupload 3.4,2013-06-11 19:20:00,
2013-06-11 15:26:00,82.0,48.1,31.98,NNW,341,0.0,0.0,30,0.00,NA,NA,-99.99,wxupload 3.4,2013-06-11 19:26:00,
2013-06-11 15:32:00,81.5,49.3,31.98,North,357,0.0,0.0,32,0.00,NA,NA,-99.99,wxupload 3.4,2013-06-11 19:32:00,
2013-06-11 15:38:00,80.4,47.5,31.98,ENE,74,0.0,2.0,31,0.00,NA,NA,-99.99,wxupload 3.4,2013-06-11 19:38:00,
2013-06-11 15:44:00,79.5,49.2,31.98,NNE,14,0.0,2.0,34,0.00,NA,NA,-99.99,wxupload 3.4,2013-06-11 19:44:00,
2013-06-11 15:50:00,78.3,47.3,31.98,NNE,21,0.0,4.0,33,0.00,NA,NA,-99.99,wxupload 3.4,2013-06-11 19:50:00,
2013-06-11 15:56:00,77.7,49.1,31.98,NNW,341,0.0,2.0,36,0.00,NA,NA,-99.99,wxupload 3.4,2013-06-11 19:56:00,
2013-06-11 16:02:00,77.4,49.5,31.98,NE,46,0.0,0.0,37,0.00,NA,NA,-99.99,wxupload 3.4,2013-06-11 20:02:00,
2013-06-11 16:08:00,77.4,50.9,31.98,South,181,0.0,3.0,39,0.00,NA,NA,-99.99,wxupload 3.4,2013-06-11 20:08:00,
2013-06-11 16:14:00,77.5,51.7,31.98,ESE,116,0.0,0.0,40,0.00,NA,NA,-99.99,wxupload 3.4,2013-06-11 20:14:00,
2013-06-11 16:20:00,77.9,52.0,31.98,SW,226,0.0,0.0,40,0.00,NA,NA,-99.99,wxupload 3.4,2013-06-11 20:20:00,
2013-06-11 16:26:00,77.7,47.6,31.98,WNW,291,0.0,0.0,34,0.00,NA,NA,-99.99,wxupload 3.4,2013-06-11 20:26:00,
2013-06-11 16:32:00,77.0,47.7,31.98,NNE,32,0.0,0.0,35,0.00,NA,NA,-99.99,wxupload 3.4,2013-06-11 20:32:00,
2013-06-11 16:38:00,76.8,49.7,31.98,SE,144,0.0,4.0,38,0.00,NA,NA,-99.99,wxupload 3.4,2013-06-11 20:38:00,
2013-06-11 16:44:00,77.2,49.3,31.98,SSE,157,0.0,0.0,37,0.00,NA,NA,-99.99,wxupload 3.4,2013-06-11 20:44:00,
2013-06-11 16:50:00,77.9,50.7,31.98,WNW,292,0.0,4.0,38,0.00,NA,NA,-99.99,wxupload 3.4,2013-06-11 20:50:00,
2013-06-11 16:56:00,78.4,50.4,31.98,NW,320,0.0,2.0,37,0.00,NA,NA,-99.99,wxupload 3.4,2013-06-11 20:56:00,
2013-06-11 17:02:00,78.3,48.0,31.98,NE,49,0.0,0.0,34,0.00,NA,NA,-99.99,wxupload 3.4,2013-06-11 21:02:00,
2013-06-11 17:08:00,77.5,47.4,31.98,NNW,337,0.0,0.0,34,0.00,NA,NA,-99.99,wxupload 3.4,2013-06-11 21:08:00,
2013-06-11 17:14:00,77.4,48.0,31.98,NE,51,0.0,0.0,35,0.00,NA,NA,-99.99,wxupload 3.4,2013-06-11 21:14:00,
2013-06-11 17:20:00,77.0,49.2,31.98,North,357,0.0,0.0,37,0.00,NA,NA,-99.99,wxupload 3.4,2013-06-11 21:20:00,
2013-06-11 17:26:00,77.0,51.2,31.98,North,0,0.0,0.0,40,0.00,NA,NA,-99.99,wxupload 3.4,2013-06-11 21:26:00,
2013-06-11 17:32:00,77.0,51.2,31.98,WSW,246,0.0,0.0,40,0.00,NA,NA,-99.99,wxupload 3.4,2013-06-11 21:32:00,
2013-06-11 17:38:00,77.2,48.6,31.98,NE,46,0.0,0.0,36,0.00,NA,NA,-99.99,wxupload 3.4,2013-06-11 21:38:00,
2013-06-11 17:44:00,77.7,49.1,31.98,WNW,296,0.0,0.0,36,0.00,NA,NA,-99.99,wxupload 3.4,2013-06-11 21:44:00,
2013-06-11 17:50:00,78.8,51.5,31.98,WNW,299,4.0,4.0,38,0.00,NA,NA,-99.99,wxupload 3.4,2013-06-11 21:50:00,
2013-06-11 17:56:00,79.2,49.6,31.98,WSW,257,0.0,3.0,35,0.00,NA,NA,-99.99,wxupload 3.4,2013-06-11 21:56:00,
2013-06-11 18:02:00,79.3,47.4,31.98,SSW,210,0.0,0.0,32,0.00,NA,NA,-99.99,wxupload 3.4,2013-06-11 22:02:00,
2013-06-11 18:08:00,79.9,48.7,31.98,NNE,31,0.0,0.0,33,0.00,NA,NA,-99.99,wxupload 3.4,2013-06-11 22:08:00,
2013-06-11 18:14:00,79.9,47.9,31.98,NE,51,0.0,0.0,32,0.00,NA,NA,-99.99,wxupload 3.4,2013-06-11 22:14:00,
2013-06-11 18:20:00,80.1,48.9,31.98,SSW,194,0.0,0.0,33,0.00,NA,NA,-99.99,wxupload 3.4,2013-06-11 22:20:00,
2013-06-11 18:26:00,80.2,50.6,31.98,ESE,104,0.0,0.0,35,0.00,NA,NA,-99.99,wxupload 3.4,2013-06-11 22:26:00,
2013-06-11 18:32:00,80.1,48.0,31.98,WSW,246,0.0,0.0,32,0.00,NA,NA,-99.99,wxupload 3.4,2013-06-11 22:32:00,
2013-06-11 18:38:00,79.9,46.2,31.98,ENE,69,0.0,0.0,30,0.00,NA,NA,-99.99,wxupload 3.4,2013-06-11 22:38:00,
2013-06-11 18:44:00,79.9,46.2,31.98,SSE,168,0.0,3.0,30,0.00,NA,NA,-99.99,wxupload 3.4,2013-06-11 22:44:00,
2013-06-11 18:50:00,79.5,46.7,31.98,NE,45,0.0,0.0,31,0.00,NA,NA,-99.99,wxupload 3.4,2013-06-11 22:50:00,
2013-06-11 18:56:00,79.3,48.2,31.98,NNE,16,0.0,0.0,33,0.00,NA,NA,-99.99,wxupload 3.4,2013-06-11 22:56:00,
2013-06-11 19:02:00,78.8,46.9,31.98,North,353,0.0,0.0,32,0.00,NA,NA,-99.99,wxupload 3.4,2013-06-11 23:02:00,
2013-06-11 19:08:00,78.4,47.4,31.98,East,83,0.0,0.0,33,0.00,NA,NA,-99.99,wxupload 3.4,2013-06-11 23:08:00,
2013-06-11 19:14:00,77.7,46.8,31.98,WNW,292,0.0,0.0,33,0.00,NA,NA,-99.99,wxupload 3.4,2013-06-11 23:14:00,
2013-06-11 19:20:00,76.8,46.8,31.98,West,280,0.0,0.0,34,0.00,NA,NA,-99.99,wxupload 3.4,2013-06-11 23:20:00,
2013-06-11 19:26:00,76.3,47.8,31.98,West,266,0.0,0.0,36,0.00,NA,NA,-99.99,wxupload 3.4,2013-06-11 23:26:00,
2013-06-11 19:32:00,75.7,48.0,31.98,SSW,203,0.0,0.0,37,0.00,NA,NA,-99.99,wxupload 3.4,2013-06-11 23:32:00,
2013-06-11 19:38:00,75.6,48.6,31.98,WSW,244,0.0,0.0,38,0.00,NA,NA,-99.99,wxupload 3.4,2013-06-11 23:38:00,
2013-06-11 19:44:00,75.0,48.1,31.98,WSW,239,0.0,3.0,38,0.00,NA,NA,-99.99,wxupload 3.4,2013-06-11 23:44:00,
2013-06-11 19:50:00,74.8,48.6,31.98,SW,230,0.0,0.0,39,0.00,NA,NA,-99.99,wxupload 3.4,2013-06-11 23:50:00,
2013-06-11 19:56:00,74.5,48.9,31.98,SW,219,0.0,0.0,40,0.00,NA,NA,-99.99,wxupload 3.4,2013-06-11 23:56:00,
2013-06-11 20:02:00,74.3,47.4,31.98,South,189,0.0,0.0,38,0.00,NA,NA,-99.99,wxupload 3.4,2013-06-12 00:02:00,
2013-06-11 20:08:00,73.9,48.5,31.98,WNW,294,3.0,4.0,40,0.00,NA,NA,-99.99,wxupload 3.4,2013-06-12 00:08:00,
2013-06-11 20:14:00,73.6,48.8,31.98,West,259,0.0,0.0,41,0.00,NA,NA,-99.99,wxupload 3.4,2013-06-12 00:14:00,
2013-06-11 20:20:00,73.4,49.3,31.98,West,266,2.0,6.0,42,0.00,NA,NA,-99.99,wxupload 3.4,2013-06-12 00:20:00,
2013-06-11 20:26:00,73.0,48.9,31.98,North,9,0.0,0.0,42,0.00,NA,NA,-99.99,wxupload 3.4,2013-06-12 00:26:00,
2013-06-11 20:32:00,73.0,48.9,31.98,NNE,12,0.0,0.0,42,0.00,NA,NA,-99.99,wxupload 3.4,2013-06-12 00:32:00,
2013-06-11 20:38:00,73.0,48.9,31.98,NNE,12,0.0,0.0,42,0.00,NA,NA,-99.99,wxupload 3.4,2013-06-12 00:38:00,
2013-06-11 20:44:00,73.0,48.9,31.98,NNE,12,0.0,0.0,42,0.00,NA,NA,-99.99,wxupload 3.4,2013-06-12 00:44:00,
2013-06-11 20:50:00,73.0,48.9,31.98,NNE,12,0.0,0.0,42,0.00,NA,NA,-99.99,wxupload 3.4,2013-06-12 00:50:00,
2013-06-11 20:56:00,73.0,48.9,31.98,NNE,12,0.0,0.0,42,0.00,NA,NA,-99.99,wxupload 3.4,2013-06-12 00:56:00,
2013-06-11 21:02:00,73.0,48.9,31.98,NNE,12,0.0,0.0,42,0.00,NA,NA,-99.99,wxupload 3.4,2013-06-12 01:02:00,
2013-06-11 21:08:00,73.0,48.9,31.98,NNE,12,0.0,0.0,42,0.00,NA,NA,-99.99,wxupload 3.4,2013-06-12 01:08:00,
2013-06-11 21:14:00,73.0,48.9,31.98,NNE,12,0.0,0.0,42,0.00,NA,NA,-99.99,wxupload 3.4,2013-06-12 01:14:00,
2013-06-11 21:20:00,73.0,48.9,31.98,NNE,12,0.0,0.0,42,0.00,NA,NA,-99.99,wxupload 3.4,2013-06-12 01:20:00,
2013-06-11 21:26:00,73.0,48.9,31.98,NNE,12,0.0,0.0,42,0.00,NA,NA,-99.99,wxupload 3.4,2013-06-12 01:26:00,
2013-06-11 21:32:00,73.0,48.9,31.98,NNE,12,0.0,0.0,42,0.00,NA,NA,-99.99,wxupload 3.4,2013-06-12 01:32:00,
2013-06-11 21:38:00,73.0,48.9,31.98,NNE,12,0.0,0.0,42,0.00,NA,NA,-99.99,wxupload 3.4,2013-06-12 01:38:00,
2013-06-11 21:44:00,73.0,48.9,31.98,NNE,12,0.0,0.0,42,0.00,NA,NA,-99.99,wxupload 3.4,2013-06-12 01:44:00,
2013-06-11 21:50:00,73.0,48.9,32.01,NNE,12,0.0,0.0,42,0.00,NA,NA,-99.99,wxupload 3.4,2013-06-12 01:50:00,
2013-06-11 21:56:00,73.0,48.9,32.01,NNE,12,0.0,0.0,42,0.00,NA,NA,-99.99,wxupload 3.4,2013-06-12 01:56:00,
2013-06-11 22:02:00,73.0,48.9,32.01,NNE,12,0.0,0.0,42,0.00,NA,NA,-99.99,wxupload 3.4,2013-06-12 02:02:00,
2013-06-11 22:08:00,73.0,48.9,32.01,NNE,12,0.0,0.0,42,0.00,NA,NA,-99.99,wxupload 3.4,2013-06-12 02:08:00,
2013-06-11 22:14:00,73.0,48.9,32.01,NNE,12,0.0,0.0,42,0.00,NA,NA,-99.99,wxupload 3.4,2013-06-12 02:14:00,
2013-06-11 22:20:00,73.0,48.9,32.01,NNE,12,0.0,0.0,42,0.00,NA,NA,-99.99,wxupload 3.4,2013-06-12 02:20:00,
2013-06-11 22:26:00,73.0,48.9,32.01,NNE,12,0.0,0.0,42,0.00,NA,NA,-99.99,wxupload 3.4,2013-06-12 02:26:00,
2013-06-11 22:32:00,73.0,48.9,32.01,NNE,12,0.0,0.0,42,0.00,NA,NA,-99.99,wxupload 3.4,2013-06-12 02:32:00,
2013-06-11 22:38:00,73.0,48.9,32.01,NNE,12,0.0,0.0,42,0.00,NA,NA,-99.99,wxupload 3.4,2013-06-12 02:38:00,
2013-06-11 22:44:00,73.0,48.9,32.01,NNE,12,0.0,0.0,42,0.00,NA,NA,-99.99,wxupload 3.4,2013-06-12 02:44:00,
2013-06-11 22:50:00,73.0,48.9,32.01,NNE,12,0.0,0.0,42,0.00,NA,NA,-99.99,wxupload 3.4,2013-06-12 02:50:00,
2013-06-11 22:56:00,73.0,48.9,32.01,NNE,12,0.0,0.0,42,0.00,NA,NA,-99.99,wxupload 3.4,2013-06-12 02:56:00,
2013-06-11 23:02:00,73.0,48.9,32.01,NNE,12,0.0,0.0,42,0.00,NA,NA,-99.99,wxupload 3.4,2013-06-12 03:02:00,
2013-06-11 23:08:00,73.0,48.9,32.01,NNE,12,0.0,0.0,42,0.00,NA,NA,-99.99,wxupload 3.4,2013-06-12 03:08:00,
2013-06-11 23:14:00,73.0,48.9,32.01,NNE,12,0.0,0.0,42,0.00,NA,NA,-99.99,wxupload 3.4,2013-06-12 03:14:00,
2013-06-11 23:20:00,73.0,48.9,32.01,NNE,12,0.0,0.0,42,0.00,NA,NA,-99.99,wxupload 3.4,2013-06-12 03:20:00,
2013-06-11 23:26:00,73.0,48.9,32.01,NNE,12,0.0,0.0,42,0.00,NA,NA,-99.99,wxupload 3.4,2013-06-12 03:26:00,
2013-06-11 23:32:00,73.0,48.9,32.01,NNE,12,0.0,0.0,42,0.00,NA,NA,-99.99,wxupload 3.4,2013-06-12 03:32:00,
2013-06-11 23:38:00,73.0,48.9,32.01,NNE,12,0.0,0.0,42,0.00,NA,NA,-99.99,wxupload 3.4,2013-06-12 03:38:00,
2013-06-11 23:44:00,73.0,48.9,32.01,NNE,12,0.0,0.0,42,0.00,NA,NA,-99.99,wxupload 3.4,2013-06-12 03:44:00,
2013-06-11 23:50:00,73.0,48.9,32.01,NNE,12,0.0,0.0,42,0.00,NA,NA,-99.99,wxupload 3.4,2013-06-12 03:50:00,
2013-06-11 23:56:00,73.0,48.9,32.01,NNE,12,0.0,0.0,42,0.00,NA,NA,-99.99,wxupload 3.4,2013-06-12 03:56:00,